Time,TemperatureF,DewpointF,PressureIn,WindDirection,WindDirectionDegrees,WindSpeedMPH,WindSpeedGustMPH,Humidity,HourlyPrecipIn,Conditions,Clouds,dailyrainin,SoftwareType,DateUTC
2013-04-01 00:00:00,48.5,44.5,29.82,WSW,243,3.0,4.5,86,0.00,,,0.10,VWS V14.01,2013-04-01 04:00:00,
2013-04-01 00:05:00,48.5,44.5,29.82,WSW,246,3.0,4.5,86,0.00,,,0.00,VWS V14.01,2013-04-01 04:05:00,
2013-04-01 00:10:00,48.5,44.5,29.82,SW,236,3.0,4.5,86,0.00,,,0.00,VWS V14.01,2013-04-01 04:10:00,
2013-04-01 00:12:00,48.5,44.5,29.82,WSW,243,4.5,4.5,86,0.00,,,0.00,VWS V14.01,2013-04-01 04:12:00,
2013-04-01 00:17:00,48.3,44.3,29.82,SW,231,4.5,6.0,86,0.00,,,0.00,VWS V14.01,2013-04-01 04:17:00,
2013-04-01 00:22:00,48.1,44.1,29.82,WSW,245,4.5,4.5,86,0.00,,,0.00,VWS V14.01,2013-04-01 04:22:00,
2013-04-01 00:27:00,48.0,44.0,29.82,WSW,248,4.5,6.0,86,0.00,,,0.00,VWS V14.01,2013-04-01 04:27:00,
2013-04-01 00:32:00,47.8,44.1,29.82,WSW,248,4.5,4.5,87,0.00,,,0.00,VWS V14.01,2013-04-01 04:32:00,
2013-04-01 00:37:00,47.8,44.1,29.81,WSW,246,4.5,4.5,87,0.00,,,0.00,VWS V14.01,2013-04-01 04:37:00,
2013-04-01 00:42:00,48.0,44.3,29.82,WSW,248,4.5,6.0,87,0.00,,,0.00,VWS V14.01,2013-04-01 04:42:00,
2013-04-01 00:47:00,47.5,44.1,29.81,WSW,255,6.0,6.0,88,0.00,,,0.00,VWS V14.01,2013-04-01 04:47:00,
2013-04-01 00:52:00,48.0,44.6,29.81,WSW,239,7.5,7.5,88,0.00,,,0.00,VWS V14.01,2013-04-01 04:52:00,
2013-04-01 00:57:00,48.1,44.4,29.81,WSW,243,3.0,4.5,87,0.00,,,0.00,VWS V14.01,2013-04-01 04:57:00,
2013-04-01 01:02:00,47.7,44.0,29.82,WSW,248,4.5,6.0,87,0.00,,,0.00,VWS V14.01,2013-04-01 05:02:00,
2013-04-01 01:07:00,47.6,44.2,29.82,WSW,247,4.5,4.5,88,0.00,,,0.00,VWS V14.01,2013-04-01 05:07:00,
2013-04-01 01:12:00,47.5,44.1,29.82,WSW,246,1.5,3.0,88,0.00,,,0.00,VWS V14.01,2013-04-01 05:12:00,
2013-04-01 01:17:00,47.3,43.9,29.82,SW,233,4.5,4.5,88,0.00,,,0.00,VWS V14.01,2013-04-01 05:17:00,
2013-04-01 01:22:00,47.3,43.9,29.82,WSW,242,4.5,4.5,88,0.00,,,0.00,VWS V14.01,2013-04-01 05:22:00,
2013-04-01 01:27:00,47.2,43.8,29.82,WSW,240,6.0,6.0,88,0.00,,,0.00,VWS V14.01,2013-04-01 05:27:00,
2013-04-01 01:32:00,47.0,43.6,29.82,WSW,243,3.0,3.0,88,0.00,,,0.00,VWS V14.01,2013-04-01 05:32:00,
2013-04-01 01:37:00,46.5,43.4,29.82,SW,229,6.0,6.0,89,0.00,,,0.00,VWS V14.01,2013-04-01 05:37:00,
2013-04-01 01:42:00,46.6,43.5,29.83,West,265,3.0,3.0,89,0.00,,,0.00,VWS V14.01,2013-04-01 05:42:00,
2013-04-01 01:47:00,46.4,43.3,29.83,SW,236,3.0,4.5,89,0.00,,,0.00,VWS V14.01,2013-04-01 05:47:00,
2013-04-01 01:52:00,46.2,43.4,29.83,SW,236,4.5,6.0,90,0.00,,,0.00,VWS V14.01,2013-04-01 05:52:00,
2013-04-01 01:57:00,46.4,43.6,29.83,SW,233,4.5,4.5,90,0.00,,,0.00,VWS V14.01,2013-04-01 05:57:00,
2013-04-01 02:02:00,46.5,43.7,29.83,SW,236,6.0,6.0,90,0.00,,,0.00,VWS V14.01,2013-04-01 06:02:00,
2013-04-01 02:07:00,46.6,43.5,29.83,WSW,239,7.5,9.0,89,0.00,,,0.00,VWS V14.01,2013-04-01 06:07:00,
2013-04-01 02:12:00,46.7,43.9,29.83,WSW,243,9.0,9.0,90,0.00,,,0.00,VWS V14.01,2013-04-01 06:12:00,
2013-04-01 02:17:00,46.6,43.8,29.83,WSW,243,6.0,6.0,90,0.00,,,0.00,VWS V14.01,2013-04-01 06:17:00,
2013-04-01 02:22:00,46.8,44.3,29.83,WSW,255,7.5,7.5,91,0.00,,,0.00,VWS V14.01,2013-04-01 06:22:00,
2013-04-01 02:27:00,46.9,44.4,29.83,WSW,258,7.5,7.5,91,0.00,,,0.00,VWS V14.01,2013-04-01 06:27:00,
2013-04-01 02:32:00,47.1,44.6,29.83,WSW,253,7.5,7.5,91,0.00,,,0.00,VWS V14.01,2013-04-01 06:32:00,
2013-04-01 02:37:00,47.1,44.6,29.83,WSW,251,6.0,7.5,91,0.00,,,0.00,VWS V14.01,2013-04-01 06:37:00,
2013-04-01 02:42:00,47.0,44.5,29.84,West,262,6.0,7.5,91,0.00,,,0.00,VWS V14.01,2013-04-01 06:42:00,
2013-04-01 02:47:00,47.1,44.6,29.84,WSW,254,7.5,7.5,91,0.00,,,0.00,VWS V14.01,2013-04-01 06:47:00,
2013-04-01 02:52:00,47.3,44.8,29.84,SW,234,7.5,7.5,91,0.00,,,0.00,VWS V14.01,2013-04-01 06:52:00,
2013-04-01 02:57:00,47.5,45.0,29.84,WSW,241,6.0,9.0,91,0.00,,,0.00,VWS V14.01,2013-04-01 06:57:00,
2013-04-01 03:02:00,47.7,45.2,29.84,WSW,243,7.5,9.0,91,0.00,,,0.00,VWS V14.01,2013-04-01 07:02:00,
2013-04-01 03:07:00,48.0,45.5,29.84,West,268,9.0,9.0,91,0.00,,,0.00,VWS V14.01,2013-04-01 07:07:00,
2013-04-01 03:12:00,48.3,45.8,29.84,WSW,246,7.5,7.5,91,0.00,,,0.00,VWS V14.01,2013-04-01 07:12:00,
2013-04-01 03:17:00,48.3,45.8,29.84,WSW,255,9.0,10.5,91,0.00,,,0.00,VWS V14.01,2013-04-01 07:17:00,
2013-04-01 03:22:00,48.4,45.9,29.84,WSW,254,6.0,9.0,91,0.00,,,0.00,VWS V14.01,2013-04-01 07:22:00,
2013-04-01 03:27:00,48.3,45.8,29.84,West,262,6.0,12.0,91,0.00,,,0.00,VWS V14.01,2013-04-01 07:27:00,
2013-04-01 03:32:00,48.3,45.8,29.84,West,261,6.0,9.0,91,0.00,,,0.00,VWS V14.01,2013-04-01 07:32:00,
2013-04-01 03:37:00,48.2,45.7,29.84,WSW,256,7.5,7.5,91,0.00,,,0.00,VWS V14.01,2013-04-01 07:37:00,
2013-04-01 03:42:00,48.1,45.6,29.84,WSW,248,9.0,9.0,91,0.00,,,0.00,VWS V14.01,2013-04-01 07:42:00,
2013-04-01 03:47:00,48.1,45.6,29.84,WSW,251,6.0,6.0,91,0.00,,,0.00,VWS V14.01,2013-04-01 07:47:00,
2013-04-01 03:52:00,48.1,45.6,29.84,West,262,6.0,7.5,91,0.00,,,0.00,VWS V14.01,2013-04-01 07:52:00,
2013-04-01 03:57:00,48.0,45.5,29.84,West,267,6.0,7.5,91,0.00,,,0.00,VWS V14.01,2013-04-01 07:57:00,
2013-04-01 04:02:00,48.0,45.5,29.84,West,277,6.0,6.0,91,0.00,,,0.00,VWS V14.01,2013-04-01 08:02:00,
2013-04-01 04:07:00,47.9,45.4,29.84,West,279,3.0,3.0,91,0.00,,,0.00,VWS V14.01,2013-04-01 08:07:00,
2013-04-01 04:12:00,47.9,45.4,29.84,West,268,6.0,6.0,91,0.00,,,0.00,VWS V14.01,2013-04-01 08:12:00,
2013-04-01 04:17:00,47.9,45.4,29.84,West,262,3.0,3.0,91,0.00,,,0.00,VWS V14.01,2013-04-01 08:17:00,
2013-04-01 04:22:00,47.8,45.3,29.84,West,279,3.0,3.0,91,0.00,,,0.00,VWS V14.01,2013-04-01 08:22:00,
2013-04-01 04:27:00,47.8,45.3,29.84,West,261,4.5,4.5,91,0.00,,,0.00,VWS V14.01,2013-04-01 08:27:00,
2013-04-01 04:32:00,48.0,45.5,29.84,West,265,3.0,4.5,91,0.00,,,0.00,VWS V14.01,2013-04-01 08:32:00,
2013-04-01 04:37:00,48.1,45.6,29.84,West,274,4.5,4.5,91,0.00,,,0.00,VWS V14.01,2013-04-01 08:37:00,
2013-04-01 04:42:00,48.1,45.6,29.85,WSW,249,6.0,7.5,91,0.00,,,0.00,VWS V14.01,2013-04-01 08:42:00,
2013-04-01 04:47:00,48.3,45.5,29.84,WNW,288,4.5,7.5,90,0.00,,,0.00,VWS V14.01,2013-04-01 08:47:00,
2013-04-01 04:52:00,48.5,45.4,29.84,WNW,294,3.0,4.5,89,0.00,,,0.00,VWS V14.01,2013-04-01 08:52:00,
2013-04-01 04:57:00,48.5,45.1,29.85,NW,305,4.5,7.5,88,0.00,,,0.00,VWS V14.01,2013-04-01 08:57:00,
2013-04-01 05:02:00,48.5,45.4,29.85,NW,322,7.5,7.5,89,0.00,,,0.00,VWS V14.01,2013-04-01 09:02:00,
2013-04-01 05:07:00,48.5,45.1,29.85,NNW,333,6.0,10.5,88,0.00,,,0.00,VWS V14.01,2013-04-01 09:07:00,
2013-04-01 05:12:00,48.4,45.0,29.85,WNW,301,4.5,7.5,88,0.00,,,0.00,VWS V14.01,2013-04-01 09:12:00,
2013-04-01 05:17:00,48.6,44.9,29.85,NNW,340,4.5,7.5,87,0.00,,,0.00,VWS V14.01,2013-04-01 09:17:00,
2013-04-01 05:22:00,48.6,44.6,29.85,NW,319,7.5,13.5,86,0.00,,,0.00,VWS V14.01,2013-04-01 09:22:00,
2013-04-01 05:27:00,48.7,44.4,29.86,NNW,342,7.5,12.0,85,0.00,,,0.00,VWS V14.01,2013-04-01 09:27:00,
2013-04-01 05:32:00,48.7,44.1,29.86,NW,321,7.5,18.0,84,0.00,,,0.00,VWS V14.01,2013-04-01 09:32:00,
2013-04-01 05:38:00,48.7,44.1,29.86,NW,313,10.5,13.5,84,0.00,,,0.00,VWS V14.01,2013-04-01 09:38:00,
2013-04-01 05:43:00,48.6,44.0,29.86,North,5,12.0,12.0,84,0.00,,,0.00,VWS V14.01,2013-04-01 09:43:00,
2013-04-01 05:48:00,48.4,43.8,29.87,NNE,27,9.0,15.0,84,0.00,,,0.00,VWS V14.01,2013-04-01 09:48:00,
2013-04-01 05:53:00,48.3,44.0,29.87,NW,326,4.5,6.0,85,0.00,,,0.00,VWS V14.01,2013-04-01 09:53:00,
2013-04-01 05:57:00,48.0,43.4,29.88,NNW,336,12.0,19.5,84,0.00,,,0.00,VWS V14.01,2013-04-01 09:57:00,
2013-04-01 06:02:00,47.9,43.3,29.88,NNE,21,6.0,9.0,84,0.00,,,0.00,VWS V14.01,2013-04-01 10:02:00,
2013-04-01 06:07:00,47.7,43.1,29.88,NNW,344,13.5,18.0,84,0.00,,,0.00,VWS V14.01,2013-04-01 10:07:00,
2013-04-01 06:12:00,47.1,42.5,29.88,NW,321,9.0,18.0,84,0.00,,,0.00,VWS V14.01,2013-04-01 10:12:00,
2013-04-01 06:17:00,46.7,41.5,29.89,North,350,10.5,15.0,82,0.00,,,0.00,VWS V14.01,2013-04-01 10:17:00,
2013-04-01 06:22:00,46.4,41.2,29.89,North,350,15.0,30.0,82,0.00,,,0.00,VWS V14.01,2013-04-01 10:22:00,
2013-04-01 06:27:00,46.2,41.3,29.89,NNW,333,6.0,15.0,83,0.00,,,0.00,VWS V14.01,2013-04-01 10:27:00,
2013-04-01 06:32:00,45.8,40.9,29.90,NNW,336,6.0,13.5,83,0.00,,,0.00,VWS V14.01,2013-04-01 10:32:00,
2013-04-01 06:38:00,45.6,40.4,29.89,NW,310,6.0,15.0,82,0.00,,,0.00,VWS V14.01,2013-04-01 10:38:00,
2013-04-01 06:43:00,45.2,40.0,29.89,NNW,336,13.5,18.0,82,0.00,,,0.00,VWS V14.01,2013-04-01 10:43:00,
2013-04-01 06:48:00,44.7,39.9,29.90,ENE,57,7.5,10.5,83,0.00,,,0.00,VWS V14.01,2013-04-01 10:48:00,
2013-04-01 06:53:00,44.4,39.6,29.90,NNW,336,9.0,9.0,83,0.00,,,0.00,VWS V14.01,2013-04-01 10:53:00,
2013-04-01 06:58:00,44.1,39.3,29.91,NNE,20,10.5,16.5,83,0.00,,,0.00,VWS V14.01,2013-04-01 10:58:00,
2013-04-01 07:03:00,43.8,39.0,29.91,WNW,299,15.0,15.0,83,0.00,,,0.00,VWS V14.01,2013-04-01 11:03:00,
2013-04-01 07:07:00,43.5,38.4,29.92,NW,326,9.0,10.5,82,0.00,,,0.00,VWS V14.01,2013-04-01 11:07:00,
2013-04-01 07:13:00,43.2,37.8,29.92,NW,326,15.0,18.0,81,0.00,,,0.00,VWS V14.01,2013-04-01 11:13:00,
2013-04-01 07:17:00,42.9,37.2,29.93,NNW,329,16.5,18.0,80,0.00,,,0.00,VWS V14.01,2013-04-01 11:17:00,
2013-04-01 07:22:00,42.7,36.3,29.93,North,10,15.0,21.0,78,0.00,,,0.00,VWS V14.01,2013-04-01 11:22:00,
2013-04-01 07:27:00,42.6,35.6,29.94,NNW,344,16.5,16.5,76,0.00,,,0.00,VWS V14.01,2013-04-01 11:27:00,
2013-04-01 07:32:00,42.4,35.0,29.94,NNW,335,10.5,24.0,75,0.00,,,0.00,VWS V14.01,2013-04-01 11:32:00,
2013-04-01 07:37:00,42.4,35.0,29.94,NNW,335,6.0,12.0,75,0.00,,,0.00,VWS V14.01,2013-04-01 11:37:00,
2013-04-01 07:42:00,42.3,34.3,29.94,NNW,331,9.0,12.0,73,0.00,,,0.00,VWS V14.01,2013-04-01 11:42:00,
2013-04-01 07:47:00,42.2,34.5,29.96,North,7,10.5,13.5,74,0.00,,,0.00,VWS V14.01,2013-04-01 11:47:00,
2013-04-01 07:52:00,42.1,34.4,29.96,NNW,344,9.0,10.5,74,0.00,,,0.00,VWS V14.01,2013-04-01 11:52:00,
2013-04-01 07:57:00,42.0,34.3,29.96,NNW,330,6.0,9.0,74,0.00,,,0.00,VWS V14.01,2013-04-01 11:57:00,
2013-04-01 08:02:00,41.9,34.6,29.96,North,10,15.0,15.0,75,0.00,,,0.00,VWS V14.01,2013-04-01 12:02:00,
2013-04-01 08:07:00,41.9,34.2,29.96,NW,306,4.5,9.0,74,0.00,,,0.00,VWS V14.01,2013-04-01 12:07:00,
2013-04-01 08:12:00,41.7,34.0,29.97,North,360,7.5,10.5,74,0.00,,,0.00,VWS V14.01,2013-04-01 12:12:00,
2013-04-01 08:17:00,41.6,33.9,29.97,NNW,330,7.5,10.5,74,0.00,,,0.00,VWS V14.01,2013-04-01 12:17:00,
2013-04-01 08:22:00,41.8,33.8,29.97,North,352,9.0,12.0,73,0.00,,,0.00,VWS V14.01,2013-04-01 12:22:00,
2013-04-01 08:27:00,41.8,33.5,29.98,NNW,329,7.5,16.5,72,0.00,,,0.00,VWS V14.01,2013-04-01 12:27:00,
2013-04-01 08:32:00,41.8,33.5,29.99,North,4,9.0,9.0,72,0.00,,,0.00,VWS V14.01,2013-04-01 12:32:00,
2013-04-01 08:37:00,41.8,33.8,29.98,NNE,30,10.5,12.0,73,0.00,,,0.00,VWS V14.01,2013-04-01 12:37:00,
2013-04-01 08:42:00,41.9,33.5,29.99,NNW,335,6.0,12.0,72,0.00,,,0.00,VWS V14.01,2013-04-01 12:42:00,
2013-04-01 08:47:00,42.2,33.8,29.98,NNE,21,19.5,19.5,72,0.00,,,0.00,VWS V14.01,2013-04-01 12:47:00,
2013-04-01 08:52:00,42.6,34.2,29.98,North,349,6.0,7.5,72,0.00,,,0.00,VWS V14.01,2013-04-01 12:52:00,
2013-04-01 08:57:00,42.7,33.6,29.98,NW,324,7.5,10.5,70,0.00,,,0.00,VWS V14.01,2013-04-01 12:57:00,
2013-04-01 09:02:00,42.4,33.7,29.98,NE,37,6.0,9.0,71,0.00,,,0.00,VWS V14.01,2013-04-01 13:02:00,
2013-04-01 09:07:00,42.8,34.1,29.99,NNE,18,10.5,13.5,71,0.00,,,0.00,VWS V14.01,2013-04-01 13:07:00,
2013-04-01 09:12:00,43.1,34.0,29.99,NW,325,7.5,12.0,70,0.00,,,0.00,VWS V14.01,2013-04-01 13:12:00,
2013-04-01 09:17:00,43.0,33.5,29.99,North,6,12.0,13.5,69,0.00,,,0.00,VWS V14.01,2013-04-01 13:17:00,
2013-04-01 09:22:00,42.8,33.3,29.99,NNW,333,9.0,9.0,69,0.00,,,0.00,VWS V14.01,2013-04-01 13:22:00,
2013-04-01 09:27:00,42.6,33.2,29.99,North,352,10.5,12.0,69,0.00,,,0.00,VWS V14.01,2013-04-01 13:27:00,
2013-04-01 09:32:00,42.4,33.0,30.00,NW,306,12.0,16.5,69,0.00,,,0.00,VWS V14.01,2013-04-01 13:32:00,
2013-04-01 09:37:00,42.2,33.5,30.01,NNW,339,6.0,9.0,71,0.00,,,0.00,VWS V14.01,2013-04-01 13:37:00,
2013-04-01 09:42:00,42.2,33.5,30.01,WNW,286,13.5,13.5,71,0.00,,,0.00,VWS V14.01,2013-04-01 13:42:00,
2013-04-01 09:47:00,42.1,33.4,30.01,NW,306,9.0,16.5,71,0.00,,,0.00,VWS V14.01,2013-04-01 13:47:00,
2013-04-01 09:52:00,42.0,34.0,30.01,NW,313,6.0,10.5,73,0.00,,,0.00,VWS V14.01,2013-04-01 13:52:00,
2013-04-01 09:57:00,41.9,33.5,30.01,NW,326,7.5,15.0,72,0.00,,,0.00,VWS V14.01,2013-04-01 13:57:00,
2013-04-01 10:02:00,41.9,33.5,30.01,NNW,329,4.5,6.0,72,0.00,,,0.00,VWS V14.01,2013-04-01 14:02:00,
2013-04-01 10:07:00,41.9,33.2,30.02,WNW,293,9.0,10.5,71,0.00,,,0.00,VWS V14.01,2013-04-01 14:07:00,
2013-04-01 10:12:00,41.9,33.2,30.02,North,4,4.5,10.5,71,0.00,,,0.00,VWS V14.01,2013-04-01 14:12:00,
2013-04-01 10:17:00,41.7,33.7,30.01,NE,37,7.5,9.0,73,0.00,,,0.00,VWS V14.01,2013-04-01 14:17:00,
2013-04-01 10:22:00,41.4,33.4,30.01,NNW,335,9.0,12.0,73,0.00,,,0.00,VWS V14.01,2013-04-01 14:22:00,
2013-04-01 10:27:00,41.3,33.7,30.01,NNE,15,6.0,7.5,74,0.00,,,0.00,VWS V14.01,2013-04-01 14:27:00,
2013-04-01 10:32:00,41.4,34.4,30.02,WNW,291,9.0,10.5,76,0.00,,,0.00,VWS V14.01,2013-04-01 14:32:00,
2013-04-01 10:37:00,41.7,34.0,30.02,NNW,331,6.0,7.5,74,0.00,,,0.00,VWS V14.01,2013-04-01 14:37:00,
2013-04-01 10:42:00,41.7,33.7,30.02,North,7,7.5,9.0,73,0.00,,,0.00,VWS V14.01,2013-04-01 14:42:00,
2013-04-01 10:47:00,41.7,33.7,30.02,North,350,3.0,7.5,73,0.00,,,0.00,VWS V14.01,2013-04-01 14:47:00,
2013-04-01 10:52:00,41.9,34.2,30.02,NW,313,4.5,10.5,74,0.00,,,0.00,VWS V14.01,2013-04-01 14:52:00,
2013-04-01 10:57:00,41.9,33.9,30.03,NW,326,6.0,6.0,73,0.00,,,0.00,VWS V14.01,2013-04-01 14:57:00,
2013-04-01 11:02:00,41.9,33.9,30.02,WNW,293,1.5,4.5,73,0.00,,,0.00,VWS V14.01,2013-04-01 15:02:00,
2013-04-01 11:07:00,42.2,34.2,30.02,NNE,18,4.5,6.0,73,0.00,,,0.00,VWS V14.01,2013-04-01 15:07:00,
2013-04-01 11:12:00,42.1,33.7,30.03,WNW,302,6.0,10.5,72,0.00,,,0.00,VWS V14.01,2013-04-01 15:12:00,
2013-04-01 11:18:00,42.6,34.6,30.03,WSW,248,6.0,6.0,73,0.00,,,0.00,VWS V14.01,2013-04-01 15:18:00,
2013-04-01 11:23:00,43.0,34.2,30.02,NNW,333,1.5,10.5,71,0.00,,,0.00,VWS V14.01,2013-04-01 15:23:00,
2013-04-01 11:28:00,43.5,35.1,30.02,North,6,12.0,13.5,72,0.00,,,0.00,VWS V14.01,2013-04-01 15:28:00,
2013-04-01 11:33:00,43.4,34.6,30.03,NW,319,7.5,12.0,71,0.00,,,0.00,VWS V14.01,2013-04-01 15:33:00,
2013-04-01 11:38:00,43.1,34.3,30.03,WNW,295,7.5,7.5,71,0.00,,,0.00,VWS V14.01,2013-04-01 15:38:00,
2013-04-01 11:43:00,43.2,34.5,30.04,NW,319,7.5,15.0,71,0.00,,,0.00,VWS V14.01,2013-04-01 15:43:00,
2013-04-01 11:48:00,43.4,34.6,30.03,WNW,300,4.5,10.5,71,0.00,,,0.00,VWS V14.01,2013-04-01 15:48:00,
2013-04-01 11:53:00,43.7,34.9,30.03,North,5,10.5,13.5,71,0.00,,,0.00,VWS V14.01,2013-04-01 15:53:00,
2013-04-01 11:58:00,43.9,35.5,30.03,West,264,7.5,15.0,72,0.00,,,0.00,VWS V14.01,2013-04-01 15:58:00,
2013-04-01 12:03:00,44.2,35.0,30.04,WNW,288,12.0,12.0,70,0.00,,,0.00,VWS V14.01,2013-04-01 16:03:00,
2013-04-01 12:08:00,44.2,35.0,30.04,WNW,296,13.5,13.5,70,0.00,,,0.00,VWS V14.01,2013-04-01 16:08:00,
2013-04-01 12:13:00,44.0,34.5,30.04,NW,306,7.5,13.5,69,0.00,,,0.00,VWS V14.01,2013-04-01 16:13:00,
2013-04-01 12:18:00,44.3,34.8,30.04,NW,319,10.5,12.0,69,0.00,,,0.00,VWS V14.01,2013-04-01 16:18:00,
2013-04-01 12:22:00,44.1,34.6,30.04,WSW,254,6.0,13.5,69,0.00,,,0.00,VWS V14.01,2013-04-01 16:22:00,
2013-04-01 12:28:00,44.3,35.2,30.05,West,275,7.5,12.0,70,0.00,,,0.00,VWS V14.01,2013-04-01 16:28:00,
2013-04-01 12:33:00,44.6,34.3,30.05,ENE,76,7.5,16.5,67,0.00,,,0.00,VWS V14.01,2013-04-01 16:33:00,
2013-04-01 12:38:00,45.1,34.8,30.05,WNW,298,10.5,10.5,67,0.00,,,0.00,VWS V14.01,2013-04-01 16:38:00,
2013-04-01 12:43:00,44.8,34.5,30.05,West,269,12.0,16.5,67,0.00,,,0.00,VWS V14.01,2013-04-01 16:43:00,
2013-04-01 12:48:00,44.4,34.5,30.05,WNW,298,12.0,18.0,68,0.00,,,0.00,VWS V14.01,2013-04-01 16:48:00,
2013-04-01 12:53:00,44.3,34.4,30.05,North,354,7.5,10.5,68,0.00,,,0.00,VWS V14.01,2013-04-01 16:53:00,
2013-04-01 12:58:00,44.5,34.6,30.05,NW,313,6.0,12.0,68,0.00,,,0.00,VWS V14.01,2013-04-01 16:58:00,
2013-04-01 13:03:00,44.7,34.4,30.05,NW,326,7.5,9.0,67,0.00,,,0.00,VWS V14.01,2013-04-01 17:03:00,
2013-04-01 13:08:00,44.5,34.6,30.05,WNW,285,3.0,9.0,68,0.00,,,0.00,VWS V14.01,2013-04-01 17:08:00,
2013-04-01 13:13:00,44.9,34.6,30.05,NNW,347,13.5,13.5,67,0.00,,,0.00,VWS V14.01,2013-04-01 17:13:00,
2013-04-01 13:18:00,44.7,34.4,30.05,NNW,329,13.5,16.5,67,0.00,,,0.00,VWS V14.01,2013-04-01 17:18:00,
2013-04-01 13:23:00,44.8,35.3,30.05,NW,321,10.5,10.5,69,0.00,,,0.00,VWS V14.01,2013-04-01 17:23:00,
2013-04-01 13:28:00,45.3,35.4,30.05,WNW,302,9.0,9.0,68,0.00,,,0.00,VWS V14.01,2013-04-01 17:28:00,
2013-04-01 13:33:00,45.0,34.7,30.05,WNW,296,4.5,4.5,67,0.00,,,0.00,VWS V14.01,2013-04-01 17:33:00,
2013-04-01 13:38:00,44.9,34.6,30.05,North,7,9.0,12.0,67,0.00,,,0.00,VWS V14.01,2013-04-01 17:38:00,
2013-04-01 13:43:00,45.1,34.8,30.05,NW,316,4.5,4.5,67,0.00,,,0.00,VWS V14.01,2013-04-01 17:43:00,
2013-04-01 13:48:00,45.7,36.1,30.04,NNW,338,9.0,9.0,69,0.00,,,0.00,VWS V14.01,2013-04-01 17:48:00,
2013-04-01 13:53:00,46.7,36.3,30.04,NNE,26,9.0,15.0,67,0.00,,,0.00,VWS V14.01,2013-04-01 17:53:00,
2013-04-01 13:58:00,47.3,36.5,30.04,West,260,4.5,4.5,66,0.00,,,0.00,VWS V14.01,2013-04-01 17:58:00,
2013-04-01 14:03:00,47.7,35.7,30.04,East,89,13.5,18.0,63,0.00,,,0.00,VWS V14.01,2013-04-01 18:03:00,
2013-04-01 14:08:00,48.3,36.3,30.04,WNW,302,10.5,13.5,63,0.00,,,0.00,VWS V14.01,2013-04-01 18:08:00,
2013-04-01 14:13:00,48.1,33.6,30.04,NW,313,12.0,22.5,57,0.00,,,0.00,VWS V14.01,2013-04-01 18:13:00,
2013-04-01 14:18:00,48.2,35.8,30.04,NNW,329,13.5,18.0,62,0.00,,,0.00,VWS V14.01,2013-04-01 18:18:00,
2013-04-01 14:23:00,48.6,33.6,30.04,NNW,348,18.0,18.0,56,0.00,,,0.00,VWS V14.01,2013-04-01 18:23:00,
2013-04-01 14:28:00,48.3,32.9,30.03,North,3,15.0,15.0,55,0.00,,,0.00,VWS V14.01,2013-04-01 18:28:00,
2013-04-01 14:33:00,48.3,32.9,30.03,WSW,257,7.5,16.5,55,0.00,,,0.00,VWS V14.01,2013-04-01 18:33:00,
2013-04-01 14:38:00,48.2,33.3,30.03,North,359,15.0,16.5,56,0.00,,,0.00,VWS V14.01,2013-04-01 18:38:00,
2013-04-01 14:43:00,49.0,33.5,30.03,West,274,10.5,13.5,55,0.00,,,0.00,VWS V14.01,2013-04-01 18:43:00,
2013-04-01 14:48:00,49.6,34.1,30.03,West,274,9.0,13.5,55,0.00,,,0.00,VWS V14.01,2013-04-01 18:48:00,
2013-04-01 14:53:00,49.1,33.7,30.03,NNW,337,9.0,13.5,55,0.00,,,0.00,VWS V14.01,2013-04-01 18:53:00,
2013-04-01 14:58:00,48.2,32.8,30.04,NNW,328,10.5,19.5,55,0.00,,,0.00,VWS V14.01,2013-04-01 18:58:00,
2013-04-01 15:03:00,47.8,32.4,30.03,WNW,291,10.5,12.0,55,0.00,,,0.00,VWS V14.01,2013-04-01 19:03:00,
2013-04-01 15:08:00,47.7,32.3,30.03,West,279,7.5,16.5,55,0.00,,,0.00,VWS V14.01,2013-04-01 19:08:00,
2013-04-01 15:13:00,48.1,32.7,30.03,North,354,12.0,13.5,55,0.00,,,0.00,VWS V14.01,2013-04-01 19:13:00,
2013-04-01 15:18:00,48.2,31.9,30.03,NW,326,3.0,15.0,53,0.00,,,0.00,VWS V14.01,2013-04-01 19:18:00,
2013-04-01 15:23:00,48.5,32.2,30.03,NW,316,13.5,19.5,53,0.00,,,0.00,VWS V14.01,2013-04-01 19:23:00,
2013-04-01 15:28:00,48.7,32.8,30.02,NW,321,9.0,12.0,54,0.00,,,0.00,VWS V14.01,2013-04-01 19:28:00,
2013-04-01 15:33:00,49.4,33.0,30.03,WNW,287,15.0,22.5,53,0.00,,,0.00,VWS V14.01,2013-04-01 19:33:00,
2013-04-01 15:38:00,49.2,32.8,30.03,West,281,15.0,19.5,53,0.00,,,0.00,VWS V14.01,2013-04-01 19:38:00,
2013-04-01 15:43:00,49.2,32.8,30.03,North,351,6.0,13.5,53,0.00,,,0.00,VWS V14.01,2013-04-01 19:43:00,
2013-04-01 15:48:00,48.7,32.3,30.03,NW,326,7.5,12.0,53,0.00,,,0.00,VWS V14.01,2013-04-01 19:48:00,
2013-04-01 15:53:00,48.1,31.8,30.03,NNW,329,4.5,12.0,53,0.00,,,0.00,VWS V14.01,2013-04-01 19:53:00,
2013-04-01 15:58:00,48.3,32.0,30.03,NNE,28,7.5,12.0,53,0.00,,,0.00,VWS V14.01,2013-04-01 19:58:00,
2013-04-01 16:03:00,49.5,31.6,30.02,West,280,10.5,19.5,50,0.00,,,0.00,VWS V14.01,2013-04-01 20:03:00,
2013-04-01 16:08:00,50.2,32.8,30.03,WNW,296,12.0,12.0,51,0.00,,,0.00,VWS V14.01,2013-04-01 20:08:00,
2013-04-01 16:12:00,50.0,31.1,30.03,West,274,13.5,16.5,48,0.00,,,0.00,VWS V14.01,2013-04-01 20:12:00,
2013-04-01 16:17:00,49.0,31.2,30.03,West,264,7.5,9.0,50,0.00,,,0.00,VWS V14.01,2013-04-01 20:17:00,
2013-04-01 16:22:00,48.8,31.0,30.03,West,274,6.0,7.5,50,0.00,,,0.00,VWS V14.01,2013-04-01 20:22:00,
2013-04-01 16:28:00,49.7,32.8,30.03,WNW,293,7.5,7.5,52,0.00,,,0.00,VWS V14.01,2013-04-01 20:28:00,
2013-04-01 16:33:00,50.4,32.0,30.03,WNW,301,9.0,19.5,49,0.00,,,0.00,VWS V14.01,2013-04-01 20:33:00,
2013-04-01 16:37:00,49.6,31.7,30.03,West,281,13.5,13.5,50,0.00,,,0.00,VWS V14.01,2013-04-01 20:37:00,
2013-04-01 16:42:00,49.0,31.2,30.03,WNW,299,9.0,12.0,50,0.00,,,0.00,VWS V14.01,2013-04-01 20:42:00,
2013-04-01 16:47:00,48.3,30.5,30.03,NW,310,9.0,9.0,50,0.00,,,0.00,VWS V14.01,2013-04-01 20:47:00,
2013-04-01 16:52:00,49.0,30.7,30.03,NW,319,6.0,16.5,49,0.00,,,0.00,VWS V14.01,2013-04-01 20:52:00,
2013-04-01 16:57:00,50.0,31.1,30.03,WNW,288,9.0,13.5,48,0.00,,,0.00,VWS V14.01,2013-04-01 20:57:00,
2013-04-01 17:02:00,50.2,31.8,30.03,WNW,299,12.0,12.0,49,0.00,,,0.00,VWS V14.01,2013-04-01 21:02:00,
2013-04-01 17:07:00,49.4,30.5,30.03,WNW,292,9.0,10.5,48,0.00,,,0.00,VWS V14.01,2013-04-01 21:07:00,
2013-04-01 17:12:00,48.7,30.4,30.03,NW,306,9.0,13.5,49,0.00,,,0.00,VWS V14.01,2013-04-01 21:12:00,
2013-04-01 17:17:00,48.4,30.1,30.03,NW,315,6.0,10.5,49,0.00,,,0.00,VWS V14.01,2013-04-01 21:17:00,
2013-04-01 17:22:00,48.6,30.8,30.03,WNW,285,3.0,4.5,50,0.00,,,0.00,VWS V14.01,2013-04-01 21:22:00,
2013-04-01 17:27:00,49.9,31.0,30.02,North,352,9.0,9.0,48,0.00,,,0.00,VWS V14.01,2013-04-01 21:27:00,
2013-04-01 17:32:00,50.5,32.1,30.03,NNW,328,12.0,18.0,49,0.00,,,0.00,VWS V14.01,2013-04-01 21:32:00,
2013-04-01 17:37:00,50.3,30.9,30.03,NW,313,9.0,13.5,47,0.00,,,0.00,VWS V14.01,2013-04-01 21:37:00,
2013-04-01 17:42:00,49.3,30.5,30.03,WNW,296,6.0,13.5,48,0.00,,,0.00,VWS V14.01,2013-04-01 21:42:00,
2013-04-01 17:47:00,48.8,31.5,30.03,NW,313,6.0,6.0,51,0.00,,,0.00,VWS V14.01,2013-04-01 21:47:00,
2013-04-01 17:52:00,48.7,30.9,30.03,West,269,6.0,7.5,50,0.00,,,0.00,VWS V14.01,2013-04-01 21:52:00,
2013-04-01 17:57:00,49.4,32.0,30.03,NNW,346,3.0,6.0,51,0.00,,,0.00,VWS V14.01,2013-04-01 21:57:00,
2013-04-01 18:02:00,49.6,31.7,30.03,NE,37,9.0,9.0,50,0.00,,,0.00,VWS V14.01,2013-04-01 22:02:00,
2013-04-01 18:07:00,49.5,31.6,30.03,NNW,333,10.5,15.0,50,0.00,,,0.00,VWS V14.01,2013-04-01 22:07:00,
2013-04-01 18:12:00,49.5,31.1,30.03,WNW,287,6.0,12.0,49,0.00,,,0.00,VWS V14.01,2013-04-01 22:12:00,
2013-04-01 18:17:00,49.8,30.9,30.03,West,261,12.0,18.0,48,0.00,,,0.00,VWS V14.01,2013-04-01 22:17:00,
2013-04-01 18:22:00,50.0,31.1,30.03,NW,307,7.5,10.5,48,0.00,,,0.00,VWS V14.01,2013-04-01 22:22:00,
2013-04-01 18:27:00,50.1,31.7,30.03,NNW,329,7.5,10.5,49,0.00,,,0.00,VWS V14.01,2013-04-01 22:27:00,
2013-04-01 18:32:00,50.6,31.6,30.03,NNW,340,6.0,6.0,48,0.00,,,0.00,VWS V14.01,2013-04-01 22:32:00,
2013-04-01 18:37:00,50.7,31.7,30.03,West,279,9.0,9.0,48,0.00,,,0.00,VWS V14.01,2013-04-01 22:37:00,
2013-04-01 18:42:00,50.1,30.7,30.03,North,356,12.0,15.0,47,0.00,,,0.00,VWS V14.01,2013-04-01 22:42:00,
2013-04-01 18:47:00,50.0,30.0,30.03,NNW,331,7.5,12.0,46,0.00,,,0.00,VWS V14.01,2013-04-01 22:47:00,
2013-04-01 18:52:00,49.5,30.1,30.03,West,262,7.5,13.5,47,0.00,,,0.00,VWS V14.01,2013-04-01 22:52:00,
2013-04-01 18:57:00,49.7,29.8,30.03,NW,310,7.5,9.0,46,0.00,,,0.00,VWS V14.01,2013-04-01 22:57:00,
2013-04-01 19:02:00,49.8,29.9,30.03,WSW,256,6.0,6.0,46,0.00,,,0.00,VWS V14.01,2013-04-01 23:02:00,
2013-04-01 19:07:00,49.9,30.0,30.03,WSW,248,4.5,7.5,46,0.00,,,0.00,VWS V14.01,2013-04-01 23:07:00,
2013-04-01 19:12:00,50.2,30.2,30.04,SW,226,3.0,7.5,46,0.00,,,0.00,VWS V14.01,2013-04-01 23:12:00,
2013-04-01 19:17:00,50.4,29.9,30.04,WNW,299,6.0,10.5,45,0.00,,,0.00,VWS V14.01,2013-04-01 23:17:00,
2013-04-01 19:22:00,50.0,29.0,30.04,North,10,9.0,13.5,44,0.00,,,0.00,VWS V14.01,2013-04-01 23:22:00,
2013-04-01 19:27:00,49.7,29.2,30.03,NW,310,4.5,7.5,45,0.00,,,0.00,VWS V14.01,2013-04-01 23:27:00,
2013-04-01 19:32:00,49.4,29.5,30.04,North,354,7.5,9.0,46,0.00,,,0.00,VWS V14.01,2013-04-01 23:32:00,
2013-04-01 19:37:00,49.0,30.2,30.04,NNE,17,1.5,1.5,48,0.00,,,0.00,VWS V14.01,2013-04-01 23:37:00,
2013-04-01 19:42:00,48.8,30.0,30.04,NNE,18,3.0,4.5,48,0.00,,,0.00,VWS V14.01,2013-04-01 23:42:00,
2013-04-01 19:47:00,48.3,30.0,30.04,NW,316,4.5,4.5,49,0.00,,,0.00,VWS V14.01,2013-04-01 23:47:00,
2013-04-01 19:52:00,47.7,29.0,30.04,NNW,328,6.0,9.0,48,0.00,,,0.00,VWS V14.01,2013-04-01 23:52:00,
2013-04-01 19:58:00,47.5,28.3,30.04,NNW,345,7.5,10.5,47,0.00,,,0.00,VWS V14.01,2013-04-01 23:58:00,
2013-04-01 20:03:00,47.3,28.1,30.05,WNW,288,7.5,15.0,47,0.00,,,0.00,VWS V14.01,2013-04-02 00:03:00,
2013-04-01 20:08:00,47.1,28.4,30.05,WNW,285,4.5,7.5,48,0.00,,,0.00,VWS V14.01,2013-04-02 00:08:00,
2013-04-01 20:13:00,46.6,29.0,30.05,NNW,334,3.0,3.0,50,0.00,,,0.00,VWS V14.01,2013-04-02 00:13:00,
2013-04-01 20:17:00,45.9,28.8,30.05,North,356,1.5,3.0,51,0.00,,,0.00,VWS V14.01,2013-04-02 00:17:00,
2013-04-01 20:22:00,45.2,28.6,30.05,NNW,336,1.5,1.5,52,0.00,,,0.00,VWS V14.01,2013-04-02 00:22:00,
2013-04-01 20:27:00,44.8,28.3,30.05,North,356,1.5,4.5,52,0.00,,,0.00,VWS V14.01,2013-04-02 00:27:00,
2013-04-01 20:32:00,44.7,28.2,30.06,NW,313,4.5,4.5,52,0.00,,,0.00,VWS V14.01,2013-04-02 00:32:00,
2013-04-01 20:37:00,44.8,27.8,30.06,NNW,342,3.0,6.0,51,0.00,,,0.00,VWS V14.01,2013-04-02 00:37:00,
2013-04-01 20:42:00,44.8,27.8,30.06,NW,319,3.0,4.5,51,0.00,,,0.00,VWS V14.01,2013-04-02 00:42:00,
2013-04-01 20:47:00,44.7,27.7,30.06,NW,321,4.5,4.5,51,0.00,,,0.00,VWS V14.01,2013-04-02 00:47:00,
2013-04-01 20:52:00,44.5,28.0,30.06,West,269,4.5,4.5,52,0.00,,,0.00,VWS V14.01,2013-04-02 00:52:00,
2013-04-01 20:57:00,44.3,27.8,30.07,West,276,4.5,4.5,52,0.00,,,0.00,VWS V14.01,2013-04-02 00:57:00,
2013-04-01 21:02:00,44.2,27.7,30.07,West,275,3.0,3.0,52,0.00,,,0.00,VWS V14.01,2013-04-02 01:02:00,
2013-04-01 21:07:00,44.0,28.0,30.07,WNW,295,1.5,3.0,53,0.00,,,0.00,VWS V14.01,2013-04-02 01:07:00,
2013-04-01 21:12:00,43.9,27.9,30.07,West,263,3.0,3.0,53,0.00,,,0.00,VWS V14.01,2013-04-02 01:12:00,
2013-04-01 21:17:00,43.5,28.0,30.08,NW,321,4.5,7.5,54,0.00,,,0.00,VWS V14.01,2013-04-02 01:17:00,
2013-04-01 21:22:00,43.3,27.8,30.08,NNW,345,1.5,1.5,54,0.00,,,0.00,VWS V14.01,2013-04-02 01:22:00,
2013-04-01 21:27:00,42.9,27.9,30.08,West,267,3.0,4.5,55,0.00,,,0.00,VWS V14.01,2013-04-02 01:27:00,
2013-04-01 21:32:00,42.8,27.8,30.08,NW,310,3.0,6.0,55,0.00,,,0.00,VWS V14.01,2013-04-02 01:32:00,
2013-04-01 21:37:00,42.8,27.8,30.09,WNW,293,3.0,7.5,55,0.00,,,0.00,VWS V14.01,2013-04-02 01:37:00,
2013-04-01 21:42:00,42.7,27.2,30.09,NW,319,3.0,3.0,54,0.00,,,0.00,VWS V14.01,2013-04-02 01:42:00,
2013-04-01 21:47:00,42.6,27.1,30.09,WNW,296,1.5,4.5,54,0.00,,,0.00,VWS V14.01,2013-04-02 01:47:00,
2013-04-01 21:52:00,42.2,28.1,30.09,NNE,24,3.0,4.5,57,0.00,,,0.00,VWS V14.01,2013-04-02 01:52:00,
2013-04-01 21:57:00,41.3,28.1,30.09,NNE,24,1.5,1.5,59,0.00,,,0.00,VWS V14.01,2013-04-02 01:57:00,
2013-04-01 22:02:00,40.6,28.2,30.10,NNE,23,1.5,1.5,61,0.00,,,0.00,VWS V14.01,2013-04-02 02:02:00,
2013-04-01 22:07:00,40.3,27.5,30.10,NNE,24,1.5,1.5,60,0.00,,,0.00,VWS V14.01,2013-04-02 02:07:00,
2013-04-01 22:12:00,40.4,28.0,30.10,NNE,24,1.5,1.5,61,0.00,,,0.00,VWS V14.01,2013-04-02 02:12:00,
2013-04-01 22:17:00,40.0,27.6,30.10,West,272,4.5,4.5,61,0.00,,,0.00,VWS V14.01,2013-04-02 02:17:00,
2013-04-01 22:22:00,40.1,26.9,30.10,WNW,285,6.0,6.0,59,0.00,,,0.00,VWS V14.01,2013-04-02 02:22:00,
2013-04-01 22:27:00,40.5,26.9,30.11,WNW,288,3.0,6.0,58,0.00,,,0.00,VWS V14.01,2013-04-02 02:27:00,
2013-04-01 22:32:00,40.6,27.0,30.11,NW,305,4.5,4.5,58,0.00,,,0.00,VWS V14.01,2013-04-02 02:32:00,
2013-04-01 22:37:00,40.6,27.0,30.11,NW,313,1.5,3.0,58,0.00,,,0.00,VWS V14.01,2013-04-02 02:37:00,
2013-04-01 22:42:00,40.5,26.9,30.11,NW,310,1.5,3.0,58,0.00,,,0.00,VWS V14.01,2013-04-02 02:42:00,
2013-04-01 22:47:00,40.5,26.9,30.11,NW,321,3.0,4.5,58,0.00,,,0.00,VWS V14.01,2013-04-02 02:47:00,
2013-04-01 22:52:00,39.9,27.2,30.11,NW,321,1.5,1.5,60,0.00,,,0.00,VWS V14.01,2013-04-02 02:52:00,
2013-04-01 22:57:00,39.3,27.8,30.12,NW,321,1.5,1.5,63,0.00,,,0.00,VWS V14.01,2013-04-02 02:57:00,
2013-04-01 23:02:00,38.8,27.7,30.12,NW,321,1.5,1.5,64,0.00,,,0.00,VWS V14.01,2013-04-02 03:02:00,
2013-04-01 23:07:00,38.7,26.8,30.12,NW,306,3.0,4.5,62,0.00,,,0.00,VWS V14.01,2013-04-02 03:07:00,
2013-04-01 23:12:00,38.6,27.1,30.12,NW,305,1.5,1.5,63,0.00,,,0.00,VWS V14.01,2013-04-02 03:12:00,
2013-04-01 23:17:00,38.2,26.7,30.12,NW,304,1.5,1.5,63,0.00,,,0.00,VWS V14.01,2013-04-02 03:17:00,
2013-04-01 23:22:00,37.8,26.7,30.12,NW,305,1.5,1.5,64,0.00,,,0.00,VWS V14.01,2013-04-02 03:22:00,
2013-04-01 23:28:00,37.2,26.9,30.12,NW,304,1.5,1.5,66,0.00,,,0.00,VWS V14.01,2013-04-02 03:28:00,
2013-04-01 23:33:00,36.9,27.0,30.12,NW,305,1.5,1.5,67,0.00,,,0.00,VWS V14.01,2013-04-02 03:33:00,
2013-04-01 23:38:00,36.9,26.2,30.12,NW,305,1.5,1.5,65,0.00,,,0.00,VWS V14.01,2013-04-02 03:38:00,
2013-04-01 23:43:00,37.2,26.2,30.12,WNW,286,1.5,3.0,64,0.00,,,0.00,VWS V14.01,2013-04-02 03:43:00,
2013-04-01 23:48:00,37.3,26.3,30.12,WNW,286,3.0,3.0,64,0.00,,,0.00,VWS V14.01,2013-04-02 03:48:00,
2013-04-01 23:53:00,37.4,26.0,30.12,North,3,3.0,6.0,63,0.00,,,0.00,VWS V14.01,2013-04-02 03:53:00,
2013-04-01 23:58:00,37.3,26.3,30.12,NW,305,1.5,1.5,64,0.00,,,0.00,VWS V14.01,2013-04-02 03:58:00,